sensor_id;sensor_type;location;lat;lon;timestamp;temperature;humidity
67899;DHT22;54699;51.796;10.956;2023-07-08T00:02:10;24.10;45.50
67899;DHT22;54699;51.796;10.956;2023-07-08T00:04:38;24.10;45.50
67899;DHT22;54699;51.796;10.956;2023-07-08T00:07:07;24.10;45.80
67899;DHT22;54699;51.796;10.956;2023-07-08T00:09:38;24.10;45.70
67899;DHT22;54699;51.796;10.956;2023-07-08T00:12:07;24.10;45.80
67899;DHT22;54699;51.796;10.956;2023-07-08T00:14:37;24.10;46.40
67899;DHT22;54699;51.796;10.956;2023-07-08T00:17:08;24.10;45.70
67899;DHT22;54699;51.796;10.956;2023-07-08T00:19:37;24.10;45.80
67899;DHT22;54699;51.796;10.956;2023-07-08T00:22:07;24.10;45.70
67899;DHT22;54699;51.796;10.956;2023-07-08T00:24:37;24.10;45.80
67899;DHT22;54699;51.796;10.956;2023-07-08T00:27:04;24.00;45.80
67899;DHT22;54699;51.796;10.956;2023-07-08T00:29:31;24.00;45.70
67899;DHT22;54699;51.796;10.956;2023-07-08T00:31:59;24.00;45.70
67899;DHT22;54699;51.796;10.956;2023-07-08T00:34:26;24.00;45.70
67899;DHT22;54699;51.796;10.956;2023-07-08T00:36:53;24.00;45.80
67899;DHT22;54699;51.796;10.956;2023-07-08T00:39:20;24.00;46.00
67899;DHT22;54699;51.796;10.956;2023-07-08T00:41:46;24.00;45.80
67899;DHT22;54699;51.796;10.956;2023-07-08T00:44:15;24.00;45.90
67899;DHT22;54699;51.796;10.956;2023-07-08T00:46:46;24.00;45.80
67899;DHT22;54699;51.796;10.956;2023-07-08T00:49:31;24.00;45.80
67899;DHT22;54699;51.796;10.956;2023-07-08T00:52:23;24.00;46.00
67899;DHT22;54699;51.796;10.956;2023-07-08T00:54:52;24.00;45.80
67899;DHT22;54699;51.796;10.956;2023-07-08T00:57:20;24.00;45.80
67899;DHT22;54699;51.796;10.956;2023-07-08T00:59:50;23.90;45.80
67899;DHT22;54699;51.796;10.956;2023-07-08T01:02:22;24.00;46.00
67899;DHT22;54699;51.796;10.956;2023-07-08T01:04:54;24.00;45.80
67899;DHT22;54699;51.796;10.956;2023-07-08T01:07:25;24.00;45.90
67899;DHT22;54699;51.796;10.956;2023-07-08T01:09:54;24.00;46.00
67899;DHT22;54699;51.796;10.956;2023-07-08T01:12:25;24.00;46.10
67899;DHT22;54699;51.796;10.956;2023-07-08T01:14:56;24.00;46.10
67899;DHT22;54699;51.796;10.956;2023-07-08T01:17:27;24.00;46.10
67899;DHT22;54699;51.796;10.956;2023-07-08T01:19:59;23.90;46.10
67899;DHT22;54699;51.796;10.956;2023-07-08T01:22:31;24.00;46.10
67899;DHT22;54699;51.796;10.956;2023-07-08T01:24:58;24.00;46.10
67899;DHT22;54699;51.796;10.956;2023-07-08T01:27:29;23.90;46.00
67899;DHT22;54699;51.796;10.956;2023-07-08T01:29:58;23.90;46.00
67899;DHT22;54699;51.796;10.956;2023-07-08T01:32:25;24.00;46.10
67899;DHT22;54699;51.796;10.956;2023-07-08T01:34:52;24.00;46.20
67899;DHT22;54699;51.796;10.956;2023-07-08T01:37:27;23.90;46.20
67899;DHT22;54699;51.796;10.956;2023-07-08T01:39:57;23.90;46.00
67899;DHT22;54699;51.796;10.956;2023-07-08T01:42:24;23.90;46.20
67899;DHT22;54699;51.796;10.956;2023-07-08T01:44:51;23.90;46.00
67899;DHT22;54699;51.796;10.956;2023-07-08T01:47:19;23.90;46.10
67899;DHT22;54699;51.796;10.956;2023-07-08T01:49:48;23.90;46.20
67899;DHT22;54699;51.796;10.956;2023-07-08T01:52:15;23.90;46.20
67899;DHT22;54699;51.796;10.956;2023-07-08T01:54:44;23.90;46.10
67899;DHT22;54699;51.796;10.956;2023-07-08T01:57:12;23.90;46.10
67899;DHT22;54699;51.796;10.956;2023-07-08T01:59:41;23.90;46.20
67899;DHT22;54699;51.796;10.956;2023-07-08T02:02:10;23.90;46.20
67899;DHT22;54699;51.796;10.956;2023-07-08T02:04:36;23.90;46.30
67899;DHT22;54699;51.796;10.956;2023-07-08T02:07:03;23.90;46.30
67899;DHT22;54699;51.796;10.956;2023-07-08T02:09:30;23.90;46.30
67899;DHT22;54699;51.796;10.956;2023-07-08T02:11:57;23.90;46.70
67899;DHT22;54699;51.796;10.956;2023-07-08T02:14:25;23.90;46.20
67899;DHT22;54699;51.796;10.956;2023-07-08T02:16:52;23.90;46.40
67899;DHT22;54699;51.796;10.956;2023-07-08T02:19:19;23.90;46.30
67899;DHT22;54699;51.796;10.956;2023-07-08T02:21:47;23.90;46.40
67899;DHT22;54699;51.796;10.956;2023-07-08T02:24:14;23.90;46.40
67899;DHT22;54699;51.796;10.956;2023-07-08T02:26:42;23.90;46.30
67899;DHT22;54699;51.796;10.956;2023-07-08T02:29:09;23.90;46.40
67899;DHT22;54699;51.796;10.956;2023-07-08T02:31:37;23.90;46.30
67899;DHT22;54699;51.796;10.956;2023-07-08T02:34:04;23.90;46.40
67899;DHT22;54699;51.796;10.956;2023-07-08T02:36:32;23.90;46.40
67899;DHT22;54699;51.796;10.956;2023-07-08T02:38:59;23.90;46.60
67899;DHT22;54699;51.796;10.956;2023-07-08T02:41:26;23.90;46.60
67899;DHT22;54699;51.796;10.956;2023-07-08T02:43:53;23.90;46.60
67899;DHT22;54699;51.796;10.956;2023-07-08T02:46:20;23.90;46.50
67899;DHT22;54699;51.796;10.956;2023-07-08T02:48:48;23.90;46.60
67899;DHT22;54699;51.796;10.956;2023-07-08T02:51:15;23.90;46.60
67899;DHT22;54699;51.796;10.956;2023-07-08T02:53:41;23.90;46.50
67899;DHT22;54699;51.796;10.956;2023-07-08T02:56:08;23.80;46.40
67899;DHT22;54699;51.796;10.956;2023-07-08T02:58:35;23.80;46.50
67899;DHT22;54699;51.796;10.956;2023-07-08T03:01:02;23.80;46.60
67899;DHT22;54699;51.796;10.956;2023-07-08T03:03:31;23.80;46.60
67899;DHT22;54699;51.796;10.956;2023-07-08T03:06:02;23.80;46.60
67899;DHT22;54699;51.796;10.956;2023-07-08T03:08:30;23.80;46.70
67899;DHT22;54699;51.796;10.956;2023-07-08T03:10:58;23.80;46.70
67899;DHT22;54699;51.796;10.956;2023-07-08T03:13:26;23.80;46.60
67899;DHT22;54699;51.796;10.956;2023-07-08T03:15:54;23.80;46.60
67899;DHT22;54699;51.796;10.956;2023-07-08T03:18:21;23.80;46.70
67899;DHT22;54699;51.796;10.956;2023-07-08T03:20:49;23.80;46.60
67899;DHT22;54699;51.796;10.956;2023-07-08T03:23:17;23.80;46.50
67899;DHT22;54699;51.796;10.956;2023-07-08T03:25:44;23.80;46.70
67899;DHT22;54699;51.796;10.956;2023-07-08T03:28:11;23.80;46.60
67899;DHT22;54699;51.796;10.956;2023-07-08T03:30:40;23.80;46.60
67899;DHT22;54699;51.796;10.956;2023-07-08T03:33:07;23.80;46.90
67899;DHT22;54699;51.796;10.956;2023-07-08T03:35:34;23.80;46.90
67899;DHT22;54699;51.796;10.956;2023-07-08T03:38:00;23.70;46.50
67899;DHT22;54699;51.796;10.956;2023-07-08T03:40:29;23.80;46.80
67899;DHT22;54699;51.796;10.956;2023-07-08T03:42:56;23.80;46.80
67899;DHT22;54699;51.796;10.956;2023-07-08T03:45:22;23.80;47.00
67899;DHT22;54699;51.796;10.956;2023-07-08T03:47:49;23.80;46.90
67899;DHT22;54699;51.796;10.956;2023-07-08T03:50:17;23.80;46.90
67899;DHT22;54699;51.796;10.956;2023-07-08T03:52:46;23.80;46.70
67899;DHT22;54699;51.796;10.956;2023-07-08T03:55:14;23.80;46.90
67899;DHT22;54699;51.796;10.956;2023-07-08T03:57:43;23.70;46.80
67899;DHT22;54699;51.796;10.956;2023-07-08T04:00:10;23.70;46.80
67899;DHT22;54699;51.796;10.956;2023-07-08T04:02:38;23.80;47.00
67899;DHT22;54699;51.796;10.956;2023-07-08T04:05:05;23.70;46.90
67899;DHT22;54699;51.796;10.956;2023-07-08T04:07:33;23.70;47.10
67899;DHT22;54699;51.796;10.956;2023-07-08T04:10:00;23.80;47.10
67899;DHT22;54699;51.796;10.956;2023-07-08T04:12:27;23.70;47.00
67899;DHT22;54699;51.796;10.956;2023-07-08T04:14:55;23.70;47.10
67899;DHT22;54699;51.796;10.956;2023-07-08T04:17:22;23.70;47.10
67899;DHT22;54699;51.796;10.956;2023-07-08T04:19:49;23.70;47.10
67899;DHT22;54699;51.796;10.956;2023-07-08T04:22:16;23.80;47.10
67899;DHT22;54699;51.796;10.956;2023-07-08T04:24:43;23.70;47.00
67899;DHT22;54699;51.796;10.956;2023-07-08T04:27:11;23.70;47.00
67899;DHT22;54699;51.796;10.956;2023-07-08T04:29:40;23.70;47.00
67899;DHT22;54699;51.796;10.956;2023-07-08T04:32:08;23.70;47.00
67899;DHT22;54699;51.796;10.956;2023-07-08T04:34:35;23.70;47.10
67899;DHT22;54699;51.796;10.956;2023-07-08T04:37:02;23.70;47.30
67899;DHT22;54699;51.796;10.956;2023-07-08T04:39:30;23.70;47.20
67899;DHT22;54699;51.796;10.956;2023-07-08T04:41:57;23.70;47.20
67899;DHT22;54699;51.796;10.956;2023-07-08T04:44:24;23.70;47.40
67899;DHT22;54699;51.796;10.956;2023-07-08T04:46:53;23.70;47.50
67899;DHT22;54699;51.796;10.956;2023-07-08T04:49:24;23.70;47.20
67899;DHT22;54699;51.796;10.956;2023-07-08T04:51:57;23.70;47.40
67899;DHT22;54699;51.796;10.956;2023-07-08T04:54:24;23.70;47.40
67899;DHT22;54699;51.796;10.956;2023-07-08T04:56:51;23.70;47.40
67899;DHT22;54699;51.796;10.956;2023-07-08T04:59:20;23.70;47.60
67899;DHT22;54699;51.796;10.956;2023-07-08T05:01:51;23.70;47.60
67899;DHT22;54699;51.796;10.956;2023-07-08T05:04:19;23.70;47.50
67899;DHT22;54699;51.796;10.956;2023-07-08T05:06:49;23.70;47.60
67899;DHT22;54699;51.796;10.956;2023-07-08T05:09:16;23.70;47.50
67899;DHT22;54699;51.796;10.956;2023-07-08T05:11:47;23.70;47.70
67899;DHT22;54699;51.796;10.956;2023-07-08T05:14:14;23.70;47.70
67899;DHT22;54699;51.796;10.956;2023-07-08T05:16:41;23.70;47.80
67899;DHT22;54699;51.796;10.956;2023-07-08T05:19:08;23.70;47.80
67899;DHT22;54699;51.796;10.956;2023-07-08T05:21:35;23.70;48.00
67899;DHT22;54699;51.796;10.956;2023-07-08T05:24:05;23.70;47.90
67899;DHT22;54699;51.796;10.956;2023-07-08T05:26:33;23.70;47.90
67899;DHT22;54699;51.796;10.956;2023-07-08T05:28:59;23.70;47.90
67899;DHT22;54699;51.796;10.956;2023-07-08T05:31:27;23.70;48.00
67899;DHT22;54699;51.796;10.956;2023-07-08T05:33:55;23.70;48.00
67899;DHT22;54699;51.796;10.956;2023-07-08T05:36:21;23.70;48.00
67899;DHT22;54699;51.796;10.956;2023-07-08T05:38:48;23.70;48.10
67899;DHT22;54699;51.796;10.956;2023-07-08T05:41:17;23.70;48.20
67899;DHT22;54699;51.796;10.956;2023-07-08T05:43:43;23.70;48.10
67899;DHT22;54699;51.796;10.956;2023-07-08T05:46:10;23.70;48.10
67899;DHT22;54699;51.796;10.956;2023-07-08T05:48:37;23.70;48.30
67899;DHT22;54699;51.796;10.956;2023-07-08T05:51:04;23.70;48.20
67899;DHT22;54699;51.796;10.956;2023-07-08T05:53:30;23.70;48.30
67899;DHT22;54699;51.796;10.956;2023-07-08T05:55:57;23.70;48.40
67899;DHT22;54699;51.796;10.956;2023-07-08T05:58:25;23.70;48.50
67899;DHT22;54699;51.796;10.956;2023-07-08T06:00:54;23.70;48.40
67899;DHT22;54699;51.796;10.956;2023-07-08T06:03:22;23.70;48.50
67899;DHT22;54699;51.796;10.956;2023-07-08T06:05:49;23.70;48.50
67899;DHT22;54699;51.796;10.956;2023-07-08T06:08:16;23.70;48.70
67899;DHT22;54699;51.796;10.956;2023-07-08T06:10:43;23.70;48.70
67899;DHT22;54699;51.796;10.956;2023-07-08T06:13:11;23.70;48.80
67899;DHT22;54699;51.796;10.956;2023-07-08T06:15:40;23.70;48.90
67899;DHT22;54699;51.796;10.956;2023-07-08T06:18:08;23.70;48.80
67899;DHT22;54699;51.796;10.956;2023-07-08T06:20:35;23.70;49.00
67899;DHT22;54699;51.796;10.956;2023-07-08T06:23:03;23.70;49.00
67899;DHT22;54699;51.796;10.956;2023-07-08T06:25:29;23.70;49.20
67899;DHT22;54699;51.796;10.956;2023-07-08T06:27:58;23.70;49.30
67899;DHT22;54699;51.796;10.956;2023-07-08T06:30:25;23.70;49.20
67899;DHT22;54699;51.796;10.956;2023-07-08T06:32:53;23.70;49.30
67899;DHT22;54699;51.796;10.956;2023-07-08T06:35:20;23.70;49.40
67899;DHT22;54699;51.796;10.956;2023-07-08T06:37:47;23.70;49.40
67899;DHT22;54699;51.796;10.956;2023-07-08T06:40:14;23.70;49.40
67899;DHT22;54699;51.796;10.956;2023-07-08T06:42:42;23.70;49.60
67899;DHT22;54699;51.796;10.956;2023-07-08T06:45:10;23.70;49.80
67899;DHT22;54699;51.796;10.956;2023-07-08T06:47:37;23.70;49.80
67899;DHT22;54699;51.796;10.956;2023-07-08T06:50:08;23.70;50.00
67899;DHT22;54699;51.796;10.956;2023-07-08T06:52:36;23.70;49.90
67899;DHT22;54699;51.796;10.956;2023-07-08T06:55:04;23.70;50.10
67899;DHT22;54699;51.796;10.956;2023-07-08T06:57:32;23.70;49.90
67899;DHT22;54699;51.796;10.956;2023-07-08T07:00:00;23.70;50.00
67899;DHT22;54699;51.796;10.956;2023-07-08T07:02:28;23.70;51.00
67899;DHT22;54699;51.796;10.956;2023-07-08T07:04:55;23.70;50.20
67899;DHT22;54699;51.796;10.956;2023-07-08T07:07:23;23.70;50.30
67899;DHT22;54699;51.796;10.956;2023-07-08T07:09:50;23.70;50.50
67899;DHT22;54699;51.796;10.956;2023-07-08T07:12:17;23.80;51.60
67899;DHT22;54699;51.796;10.956;2023-07-08T07:14:44;23.80;50.90
67899;DHT22;54699;51.796;10.956;2023-07-08T07:17:11;23.70;50.90
67899;DHT22;54699;51.796;10.956;2023-07-08T07:19:38;23.70;50.90
67899;DHT22;54699;51.796;10.956;2023-07-08T07:22:08;23.70;50.80
67899;DHT22;54699;51.796;10.956;2023-07-08T07:24:36;23.80;51.10
67899;DHT22;54699;51.796;10.956;2023-07-08T07:27:03;23.80;51.00
67899;DHT22;54699;51.796;10.956;2023-07-08T07:29:37;23.80;51.10
67899;DHT22;54699;51.796;10.956;2023-07-08T07:32:07;23.80;51.00
67899;DHT22;54699;51.796;10.956;2023-07-08T07:34:34;23.80;51.10
67899;DHT22;54699;51.796;10.956;2023-07-08T07:37:01;23.80;50.50
67899;DHT22;54699;51.796;10.956;2023-07-08T07:39:28;23.90;51.10
67899;DHT22;54699;51.796;10.956;2023-07-08T07:41:56;23.90;51.10
67899;DHT22;54699;51.796;10.956;2023-07-08T07:44:23;23.90;50.70
67899;DHT22;54699;51.796;10.956;2023-07-08T07:46:51;23.90;50.30
67899;DHT22;54699;51.796;10.956;2023-07-08T07:49:19;23.90;50.40
67899;DHT22;54699;51.796;10.956;2023-07-08T07:51:46;24.00;50.30
67899;DHT22;54699;51.796;10.956;2023-07-08T07:54:13;24.00;50.10
67899;DHT22;54699;51.796;10.956;2023-07-08T07:56:40;24.00;50.10
67899;DHT22;54699;51.796;10.956;2023-07-08T07:59:09;24.00;49.80
67899;DHT22;54699;51.796;10.956;2023-07-08T08:01:36;24.00;49.90
67899;DHT22;54699;51.796;10.956;2023-07-08T08:04:03;24.00;50.20
67899;DHT22;54699;51.796;10.956;2023-07-08T08:06:31;24.00;49.70
67899;DHT22;54699;51.796;10.956;2023-07-08T08:08:58;24.00;49.70
67899;DHT22;54699;51.796;10.956;2023-07-08T08:11:24;24.00;49.80
67899;DHT22;54699;51.796;10.956;2023-07-08T08:13:52;23.90;49.60
67899;DHT22;54699;51.796;10.956;2023-07-08T08:16:20;24.00;49.70
67899;DHT22;54699;51.796;10.956;2023-07-08T08:18:47;24.00;50.60
67899;DHT22;54699;51.796;10.956;2023-07-08T08:21:14;24.00;49.70
67899;DHT22;54699;51.796;10.956;2023-07-08T08:23:41;24.00;49.70
67899;DHT22;54699;51.796;10.956;2023-07-08T08:26:08;24.00;49.60
67899;DHT22;54699;51.796;10.956;2023-07-08T08:28:35;24.00;49.50
67899;DHT22;54699;51.796;10.956;2023-07-08T08:31:02;24.00;49.40
67899;DHT22;54699;51.796;10.956;2023-07-08T08:33:30;24.00;49.40
67899;DHT22;54699;51.796;10.956;2023-07-08T08:35:57;24.10;49.50
67899;DHT22;54699;51.796;10.956;2023-07-08T08:38:24;24.00;49.40
67899;DHT22;54699;51.796;10.956;2023-07-08T08:40:51;24.10;49.50
67899;DHT22;54699;51.796;10.956;2023-07-08T08:43:18;24.10;49.40
67899;DHT22;54699;51.796;10.956;2023-07-08T08:45:50;24.10;49.30
67899;DHT22;54699;51.796;10.956;2023-07-08T08:48:23;24.10;49.40
67899;DHT22;54699;51.796;10.956;2023-07-08T08:50:55;24.10;49.40
67899;DHT22;54699;51.796;10.956;2023-07-08T08:53:26;24.10;49.20
67899;DHT22;54699;51.796;10.956;2023-07-08T08:55:55;24.10;49.20
67899;DHT22;54699;51.796;10.956;2023-07-08T08:58:27;24.10;49.20
67899;DHT22;54699;51.796;10.956;2023-07-08T09:01:02;24.10;49.20
67899;DHT22;54699;51.796;10.956;2023-07-08T09:03:36;24.10;49.20
67899;DHT22;54699;51.796;10.956;2023-07-08T09:06:13;24.10;49.10
67899;DHT22;54699;51.796;10.956;2023-07-08T09:08:43;24.10;49.10
67899;DHT22;54699;51.796;10.956;2023-07-08T09:11:13;24.10;49.10
67899;DHT22;54699;51.796;10.956;2023-07-08T09:13:46;24.10;49.10
67899;DHT22;54699;51.796;10.956;2023-07-08T09:16:15;24.20;49.30
67899;DHT22;54699;51.796;10.956;2023-07-08T09:18:52;24.20;49.30
67899;DHT22;54699;51.796;10.956;2023-07-08T09:21:26;24.10;49.10
67899;DHT22;54699;51.796;10.956;2023-07-08T09:23:59;24.20;49.30
67899;DHT22;54699;51.796;10.956;2023-07-08T09:26:30;24.20;49.30
67899;DHT22;54699;51.796;10.956;2023-07-08T09:28:59;24.20;49.20
67899;DHT22;54699;51.796;10.956;2023-07-08T09:31:26;24.20;49.20
67899;DHT22;54699;51.796;10.956;2023-07-08T09:34:04;24.20;49.30
67899;DHT22;54699;51.796;10.956;2023-07-08T09:36:37;24.20;49.40
67899;DHT22;54699;51.796;10.956;2023-07-08T09:39:09;24.20;49.30
67899;DHT22;54699;51.796;10.956;2023-07-08T09:41:38;24.30;49.70
67899;DHT22;54699;51.796;10.956;2023-07-08T09:44:11;24.30;50.20
67899;DHT22;54699;51.796;10.956;2023-07-08T09:46:41;24.30;50.70
67899;DHT22;54699;51.796;10.956;2023-07-08T09:49:09;24.30;51.30
67899;DHT22;54699;51.796;10.956;2023-07-08T09:51:43;24.30;51.80
67899;DHT22;54699;51.796;10.956;2023-07-08T09:54:10;24.30;51.00
67899;DHT22;54699;51.796;10.956;2023-07-08T09:56:38;24.40;52.20
67899;DHT22;54699;51.796;10.956;2023-07-08T09:59:11;24.30;51.80
67899;DHT22;54699;51.796;10.956;2023-07-08T10:01:39;24.40;52.10
67899;DHT22;54699;51.796;10.956;2023-07-08T10:04:07;24.40;52.30
67899;DHT22;54699;51.796;10.956;2023-07-08T10:06:34;24.40;52.30
67899;DHT22;54699;51.796;10.956;2023-07-08T10:09:04;24.40;52.30
67899;DHT22;54699;51.796;10.956;2023-07-08T10:11:35;24.40;52.40
67899;DHT22;54699;51.796;10.956;2023-07-08T10:14:09;24.50;52.70
67899;DHT22;54699;51.796;10.956;2023-07-08T10:16:41;24.40;52.90
67899;DHT22;54699;51.796;10.956;2023-07-08T10:19:09;24.50;53.60
67899;DHT22;54699;51.796;10.956;2023-07-08T10:21:41;24.50;53.50
67899;DHT22;54699;51.796;10.956;2023-07-08T10:24:20;24.50;53.60
67899;DHT22;54699;51.796;10.956;2023-07-08T10:26:57;24.60;53.90
67899;DHT22;54699;51.796;10.956;2023-07-08T10:29:34;24.60;54.10
67899;DHT22;54699;51.796;10.956;2023-07-08T10:32:13;24.60;54.00
67899;DHT22;54699;51.796;10.956;2023-07-08T10:34:49;24.60;54.10
67899;DHT22;54699;51.796;10.956;2023-07-08T10:37:25;24.60;55.30
67899;DHT22;54699;51.796;10.956;2023-07-08T10:40:10;24.60;54.30
67899;DHT22;54699;51.796;10.956;2023-07-08T10:42:57;24.70;54.60
67899;DHT22;54699;51.796;10.956;2023-07-08T10:45:34;24.70;54.70
67899;DHT22;54699;51.796;10.956;2023-07-08T10:48:17;24.70;54.80
67899;DHT22;54699;51.796;10.956;2023-07-08T10:50:58;24.70;54.80
67899;DHT22;54699;51.796;10.956;2023-07-08T10:53:41;24.70;54.80
67899;DHT22;54699;51.796;10.956;2023-07-08T10:56:28;24.80;55.00
67899;DHT22;54699;51.796;10.956;2023-07-08T10:59:06;24.80;55.10
67899;DHT22;54699;51.796;10.956;2023-07-08T11:01:46;24.80;55.10
67899;DHT22;54699;51.796;10.956;2023-07-08T11:04:33;24.80;55.30
67899;DHT22;54699;51.796;10.956;2023-07-08T11:07:10;24.90;55.30
67899;DHT22;54699;51.796;10.956;2023-07-08T11:09:44;24.80;55.40
67899;DHT22;54699;51.796;10.956;2023-07-08T11:12:20;24.90;55.40
67899;DHT22;54699;51.796;10.956;2023-07-08T11:14:55;24.90;55.40
67899;DHT22;54699;51.796;10.956;2023-07-08T11:17:29;24.90;55.60
67899;DHT22;54699;51.796;10.956;2023-07-08T11:20:07;24.90;55.30
67899;DHT22;54699;51.796;10.956;2023-07-08T11:22:44;24.90;55.50
67899;DHT22;54699;51.796;10.956;2023-07-08T11:25:16;24.90;55.30
67899;DHT22;54699;51.796;10.956;2023-07-08T11:27:48;25.00;55.50
67899;DHT22;54699;51.796;10.956;2023-07-08T11:30:20;25.00;55.40
67899;DHT22;54699;51.796;10.956;2023-07-08T11:32:54;25.00;55.40
67899;DHT22;54699;51.796;10.956;2023-07-08T11:35:29;25.00;56.10
67899;DHT22;54699;51.796;10.956;2023-07-08T11:38:01;25.10;55.90
67899;DHT22;54699;51.796;10.956;2023-07-08T11:40:29;25.00;56.10
67899;DHT22;54699;51.796;10.956;2023-07-08T11:43:01;25.10;56.10
67899;DHT22;54699;51.796;10.956;2023-07-08T11:45:32;25.10;56.20
67899;DHT22;54699;51.796;10.956;2023-07-08T11:48:05;25.10;56.10
67899;DHT22;54699;51.796;10.956;2023-07-08T11:50:40;25.10;56.00
67899;DHT22;54699;51.796;10.956;2023-07-08T11:53:10;25.20;56.00
67899;DHT22;54699;51.796;10.956;2023-07-08T11:55:42;25.20;55.80
67899;DHT22;54699;51.796;10.956;2023-07-08T11:58:20;25.20;56.00
67899;DHT22;54699;51.796;10.956;2023-07-08T12:00:52;25.20;56.30
67899;DHT22;54699;51.796;10.956;2023-07-08T12:03:28;25.20;56.70
67899;DHT22;54699;51.796;10.956;2023-07-08T12:06:00;25.20;56.50
67899;DHT22;54699;51.796;10.956;2023-07-08T12:08:33;25.20;56.70
67899;DHT22;54699;51.796;10.956;2023-07-08T12:11:03;25.20;56.30
67899;DHT22;54699;51.796;10.956;2023-07-08T12:13:32;25.30;56.30
67899;DHT22;54699;51.796;10.956;2023-07-08T12:15:59;25.30;56.50
67899;DHT22;54699;51.796;10.956;2023-07-08T12:18:27;25.30;56.70
67899;DHT22;54699;51.796;10.956;2023-07-08T12:21:01;25.30;56.90
67899;DHT22;54699;51.796;10.956;2023-07-08T12:23:28;25.20;56.90
67899;DHT22;54699;51.796;10.956;2023-07-08T12:25:58;25.30;57.10
67899;DHT22;54699;51.796;10.956;2023-07-08T12:28:25;25.30;57.30
67899;DHT22;54699;51.796;10.956;2023-07-08T12:30:53;25.30;57.30
67899;DHT22;54699;51.796;10.956;2023-07-08T12:33:25;25.30;57.70
67899;DHT22;54699;51.796;10.956;2023-07-08T12:35:54;25.30;57.90
67899;DHT22;54699;51.796;10.956;2023-07-08T12:38:23;25.40;57.90
67899;DHT22;54699;51.796;10.956;2023-07-08T12:40:54;25.40;57.60
67899;DHT22;54699;51.796;10.956;2023-07-08T12:43:22;25.40;57.50
67899;DHT22;54699;51.796;10.956;2023-07-08T12:45:49;25.40;57.60
67899;DHT22;54699;51.796;10.956;2023-07-08T12:48:17;25.40;57.50
67899;DHT22;54699;51.796;10.956;2023-07-08T12:50:44;25.40;57.60
67899;DHT22;54699;51.796;10.956;2023-07-08T12:53:11;25.50;58.20
67899;DHT22;54699;51.796;10.956;2023-07-08T12:55:39;25.50;57.50
67899;DHT22;54699;51.796;10.956;2023-07-08T12:58:08;25.50;57.60
67899;DHT22;54699;51.796;10.956;2023-07-08T13:00:39;25.50;57.70
67899;DHT22;54699;51.796;10.956;2023-07-08T13:03:08;25.50;57.70
67899;DHT22;54699;51.796;10.956;2023-07-08T13:05:42;25.50;57.90
67899;DHT22;54699;51.796;10.956;2023-07-08T13:08:10;25.50;57.60
67899;DHT22;54699;51.796;10.956;2023-07-08T13:10:38;25.60;58.00
67899;DHT22;54699;51.796;10.956;2023-07-08T13:13:06;25.60;57.60
67899;DHT22;54699;51.796;10.956;2023-07-08T13:15:38;25.60;57.60
67899;DHT22;54699;51.796;10.956;2023-07-08T13:18:08;25.60;57.60
67899;DHT22;54699;51.796;10.956;2023-07-08T13:20:42;25.60;57.40
67899;DHT22;54699;51.796;10.956;2023-07-08T13:23:19;25.60;57.70
67899;DHT22;54699;51.796;10.956;2023-07-08T13:25:48;25.60;57.50
67899;DHT22;54699;51.796;10.956;2023-07-08T13:28:17;25.70;57.30
67899;DHT22;54699;51.796;10.956;2023-07-08T13:30:52;25.70;57.20
67899;DHT22;54699;51.796;10.956;2023-07-08T13:33:20;25.70;57.30
67899;DHT22;54699;51.796;10.956;2023-07-08T13:35:49;25.70;57.30
67899;DHT22;54699;51.796;10.956;2023-07-08T13:38:19;25.70;57.50
67899;DHT22;54699;51.796;10.956;2023-07-08T13:40:48;25.70;57.50
67899;DHT22;54699;51.796;10.956;2023-07-08T13:43:22;25.70;57.40
67899;DHT22;54699;51.796;10.956;2023-07-08T13:45:50;25.80;57.50
67899;DHT22;54699;51.796;10.956;2023-07-08T13:48:18;25.80;57.40
67899;DHT22;54699;51.796;10.956;2023-07-08T13:50:53;25.80;57.50
67899;DHT22;54699;51.796;10.956;2023-07-08T13:53:24;25.80;57.30
67899;DHT22;54699;51.796;10.956;2023-07-08T13:55:57;25.80;57.40
67899;DHT22;54699;51.796;10.956;2023-07-08T13:58:26;25.90;58.50
67899;DHT22;54699;51.796;10.956;2023-07-08T14:00:56;25.90;57.50
67899;DHT22;54699;51.796;10.956;2023-07-08T14:03:23;25.90;57.60
67899;DHT22;54699;51.796;10.956;2023-07-08T14:05:52;25.90;57.60
67899;DHT22;54699;51.796;10.956;2023-07-08T14:08:19;25.90;57.60
67899;DHT22;54699;51.796;10.956;2023-07-08T14:10:47;25.90;57.80
67899;DHT22;54699;51.796;10.956;2023-07-08T14:13:14;25.90;57.90
67899;DHT22;54699;51.796;10.956;2023-07-08T14:15:43;25.90;58.00
67899;DHT22;54699;51.796;10.956;2023-07-08T14:18:10;25.90;57.90
67899;DHT22;54699;51.796;10.956;2023-07-08T14:20:38;25.90;58.00
67899;DHT22;54699;51.796;10.956;2023-07-08T14:23:08;25.90;57.80
67899;DHT22;54699;51.796;10.956;2023-07-08T14:25:36;26.00;57.90
67899;DHT22;54699;51.796;10.956;2023-07-08T14:28:02;25.90;57.80
67899;DHT22;54699;51.796;10.956;2023-07-08T14:30:31;26.00;58.00
67899;DHT22;54699;51.796;10.956;2023-07-08T14:32:58;26.00;58.00
67899;DHT22;54699;51.796;10.956;2023-07-08T14:35:26;26.00;57.90
67899;DHT22;54699;51.796;10.956;2023-07-08T14:37:55;26.00;57.90
67899;DHT22;54699;51.796;10.956;2023-07-08T14:40:25;26.00;58.00
67899;DHT22;54699;51.796;10.956;2023-07-08T14:42:56;26.00;57.80
67899;DHT22;54699;51.796;10.956;2023-07-08T14:45:27;26.10;58.10
67899;DHT22;54699;51.796;10.956;2023-07-08T14:47:56;26.10;57.90
67899;DHT22;54699;51.796;10.956;2023-07-08T14:50:23;26.10;57.70
67899;DHT22;54699;51.796;10.956;2023-07-08T14:52:51;26.10;57.70
67899;DHT22;54699;51.796;10.956;2023-07-08T14:55:17;26.10;57.80
67899;DHT22;54699;51.796;10.956;2023-07-08T14:57:46;26.10;57.70
67899;DHT22;54699;51.796;10.956;2023-07-08T15:00:16;26.10;57.90
67899;DHT22;54699;51.796;10.956;2023-07-08T15:02:45;26.10;58.10
67899;DHT22;54699;51.796;10.956;2023-07-08T15:05:14;26.10;58.00
67899;DHT22;54699;51.796;10.956;2023-07-08T15:07:42;26.10;58.10
67899;DHT22;54699;51.796;10.956;2023-07-08T15:10:09;26.10;58.10
67899;DHT22;54699;51.796;10.956;2023-07-08T15:12:36;26.10;58.00
67899;DHT22;54699;51.796;10.956;2023-07-08T15:15:05;26.10;58.00
67899;DHT22;54699;51.796;10.956;2023-07-08T15:17:40;26.20;58.00
67899;DHT22;54699;51.796;10.956;2023-07-08T15:20:09;26.20;58.30
67899;DHT22;54699;51.796;10.956;2023-07-08T15:22:40;26.20;58.40
67899;DHT22;54699;51.796;10.956;2023-07-08T15:25:09;26.20;58.40
67899;DHT22;54699;51.796;10.956;2023-07-08T15:27:36;26.20;58.30
67899;DHT22;54699;51.796;10.956;2023-07-08T15:30:08;26.20;58.50